Terminal Aerodrome Forecast
Issued by NWS

Home | Current Version | Previous Version | Text Only | Print | Product List | Glossary On
Versions: 1 2 3 4 5 6 7 8 9 10 11 12 13 14 15 16 17 18 19 20 21 22 23 24
000
FTAK31 PAJK 231727
TAFAGY
TAF
PAGY 231727Z 2318/2418 21004KT P6SM -RA BKN025 OVC040
     FM232100 21010G20KT P6SM -SHRA BKN025 OVC040
     FM240000 21010KT P6SM VCSH BKN050 BKN070
     FM240700 21004KT P6SM SCT070 BKN100
      AMD LTD TO CLD VIS AND WIND=

USA.gov is the U.S. government's official web portal to all federal, state and local government web resources and services.